Time;durP1;ratioP1;P1;durP2;ratioP2;P2;SDS_P1;SDS_P2;PMS_P1;PMS_P2;Temp;Humidity;BMP_temperature;BMP_pressure;BME280_temperature;BME280_humidity;BME280_pressure;Samples;Min_cycle;Max_cycle;Signal;HPM_P1;HPM_P2
2022/04/10 00:00:31;;;;;;;7.18;2.50;;;5.70;99.90;;;;;;4127587;28;20072;-63
2022/04/10 00:02:32;;;;;;;5.53;2.55;;;5.60;99.90;;;;;;4128684;28;20465;-63
2022/04/10 00:04:32;;;;;;;5.95;2.58;;;5.60;99.90;;;;;;4128916;28;20034;-63
2022/04/10 00:06:33;;;;;;;5.95;2.60;;;5.60;99.90;;;;;;4127666;28;20047;-63
2022/04/10 00:08:33;;;;;;;4.60;2.03;;;5.70;99.90;;;;;;4128134;28;20044;-63
2022/04/10 00:10:34;;;;;;;6.00;2.70;;;5.70;99.90;;;;;;4126901;28;20117;-63
2022/04/10 00:12:35;;;;;;;7.03;2.65;;;5.60;99.90;;;;;;4128868;28;20443;-63
2022/04/10 00:14:36;;;;;;;5.65;2.30;;;5.60;99.90;;;;;;4129064;28;20038;-63
2022/04/10 00:16:36;;;;;;;5.90;2.67;;;5.60;99.90;;;;;;4128538;28;20481;-63
2022/04/10 00:18:37;;;;;;;8.25;2.65;;;5.60;99.90;;;;;;4127589;28;20041;-63
2022/04/10 00:20:38;;;;;;;4.15;2.40;;;5.60;99.90;;;;;;4127632;28;20085;-63
2022/04/10 00:22:43;;;;;;;7.22;2.75;;;5.60;99.90;;;;;;4127373;28;20400;-63
2022/04/10 00:24:45;;;;;;;8.32;3.22;;;5.60;99.90;;;;;;4135060;28;20568;-63
2022/04/10 00:26:45;;;;;;;10.13;3.28;;;5.70;99.90;;;;;;4127888;28;20058;-63
2022/04/10 00:28:46;;;;;;;8.77;3.08;;;5.70;99.90;;;;;;4128453;28;20042;-63
2022/04/10 00:30:47;;;;;;;6.03;2.78;;;5.70;99.90;;;;;;4128084;28;20058;-63
2022/04/10 00:32:47;;;;;;;4.05;2.47;;;5.70;99.90;;;;;;4128394;28;20034;-63
2022/04/10 00:34:48;;;;;;;7.40;2.67;;;5.70;99.90;;;;;;4128697;28;20489;-63
2022/04/10 00:36:48;;;;;;;6.32;2.35;;;5.70;99.90;;;;;;4128100;28;20496;-63
2022/04/10 00:38:49;;;;;;;5.82;2.75;;;5.70;99.90;;;;;;4127645;28;20536;-63
2022/04/10 00:40:50;;;;;;;7.95;2.80;;;5.70;99.90;;;;;;4124665;28;20462;-63
2022/04/10 00:42:51;;;;;;;6.50;2.63;;;5.70;99.90;;;;;;4128192;28;20034;-63
2022/04/10 00:44:51;;;;;;;6.70;2.53;;;5.60;99.90;;;;;;4128578;28;20117;-63
2022/04/10 00:46:52;;;;;;;6.13;2.78;;;5.60;99.90;;;;;;4128046;28;20030;-63
2022/04/10 00:48:52;;;;;;;11.85;3.58;;;5.60;99.90;;;;;;4128076;28;20042;-63
2022/04/10 00:53:16;;;;;;;6.70;3.00;;;5.60;99.90;;;;;;4127892;28;20026;-63
2022/04/10 00:55:17;;;;;;;9.07;3.00;;;5.60;99.90;;;;;;4127889;28;20069;-63
2022/04/10 00:57:19;;;;;;;5.78;2.50;;;5.60;99.90;;;;;;4128462;28;20038;-63
2022/04/10 00:59:20;;;;;;;5.40;3.03;;;5.60;99.90;;;;;;4127985;28;20026;-63
2022/04/10 01:01:21;;;;;;;6.27;2.97;;;5.40;99.90;;;;;;4127197;28;20034;-63
2022/04/10 01:03:22;;;;;;;8.13;2.95;;;5.40;99.90;;;;;;4127613;28;20414;-63
2022/04/10 01:05:22;;;;;;;5.10;2.65;;;5.40;99.90;;;;;;4127267;28;20513;-63
2022/04/10 01:07:23;;;;;;;4.45;2.60;;;5.40;99.90;;;;;;4127221;28;20026;-63
2022/04/10 01:09:24;;;;;;;10.40;2.95;;;5.40;99.90;;;;;;4127966;28;20047;-63
2022/04/10 01:11:25;;;;;;;6.88;3.05;;;5.40;99.90;;;;;;4127419;28;20125;-63
2022/04/10 01:13:26;;;;;;;10.18;3.45;;;5.40;99.90;;;;;;4127787;28;20454;-63
2022/04/10 01:15:26;;;;;;;12.65;3.85;;;5.40;99.90;;;;;;4125749;28;20046;-63
2022/04/10 01:17:30;;;;;;;13.23;3.63;;;5.40;99.90;;;;;;4119492;28;20081;-63
2022/04/10 01:19:31;;;;;;;6.68;3.08;;;5.30;99.90;;;;;;4124367;28;20043;-63
2022/04/10 01:21:40;;;;;;;6.32;2.85;;;5.40;99.90;;;;;;4127450;28;20041;-63
2022/04/10 01:23:44;;;;;;;6.90;2.33;;;5.40;99.90;;;;;;4133478;28;20093;-63
2022/04/10 01:25:44;;;;;;;7.43;2.60;;;5.40;99.90;;;;;;4129350;28;20029;-63
2022/04/10 01:27:45;;;;;;;6.18;2.60;;;5.40;99.90;;;;;;4129986;28;20478;-63
2022/04/10 01:29:45;;;;;;;5.35;2.50;;;5.50;99.90;;;;;;4130541;28;20034;-63
2022/04/10 01:31:47;;;;;;;5.97;2.40;;;5.50;99.90;;;;;;4130082;28;20532;-64
2022/04/10 01:33:48;;;;;;;7.85;2.58;;;5.50;99.90;;;;;;4129984;28;20034;-63
2022/04/10 01:35:49;;;;;;;7.15;2.80;;;5.60;99.90;;;;;;4129112;28;20038;-63
2022/04/10 01:37:51;;;;;;;9.48;2.97;;;5.60;99.90;;;;;;4140604;28;20038;-63
2022/04/10 01:39:52;;;;;;;9.95;3.95;;;5.60;99.90;;;;;;4132850;28;20513;-63
2022/04/10 01:41:53;;;;;;;8.88;4.40;;;5.60;99.90;;;;;;4128996;28;20033;-63
2022/04/10 01:43:55;;;;;;;9.90;3.50;;;5.60;99.90;;;;;;4130496;28;20272;-63
2022/04/10 01:45:56;;;;;;;;;;;5.60;99.90;;;;;;4130250;28;20042;-63
2022/04/10 01:47:56;;;;;;;7.68;2.65;;;5.50;99.90;;;;;;4130799;28;19914;-63
2022/04/10 01:49:57;;;;;;;6.20;2.45;;;5.60;99.90;;;;;;4129740;28;20027;-63
2022/04/10 01:51:57;;;;;;;7.60;2.92;;;5.50;99.90;;;;;;4130259;28;20397;-63
2022/04/10 01:53:58;;;;;;;8.35;2.72;;;5.60;99.90;;;;;;4130707;28;20141;-63
2022/04/10 01:55:59;;;;;;;8.68;2.75;;;5.50;99.90;;;;;;4130293;28;20030;-63
2022/04/10 01:57:59;;;;;;;3.92;2.40;;;5.60;99.90;;;;;;4130939;28;20394;-63
2022/04/10 02:00:00;;;;;;;6.82;2.85;;;5.60;99.90;;;;;;4130409;28;22481;-63
2022/04/10 02:02:02;;;;;;;6.53;2.55;;;5.50;99.90;;;;;;4130195;28;20038;-63
2022/04/10 02:04:02;;;;;;;4.90;2.63;;;5.50;99.90;;;;;;4130701;28;20486;-63
2022/04/10 02:06:05;;;;;;;8.48;2.78;;;5.50;99.90;;;;;;4129874;28;20040;-63
2022/04/10 02:08:05;;;;;;;5.40;2.63;;;5.60;99.90;;;;;;4142297;28;20470;-63
2022/04/10 02:10:06;;;;;;;5.13;2.63;;;5.60;99.90;;;;;;4130163;28;20035;-64
2022/04/10 02:12:08;;;;;;;6.15;2.83;;;5.50;99.90;;;;;;4129537;28;20506;-63
2022/04/10 02:14:08;;;;;;;6.13;2.50;;;5.50;99.90;;;;;;4128486;28;20030;-63
2022/04/10 02:16:14;;;;;;;6.50;2.63;;;5.50;99.90;;;;;;4133849;28;20096;-63
2022/04/10 02:18:15;;;;;;;9.82;3.20;;;5.40;99.90;;;;;;4130830;28;20040;-63
2022/04/10 02:20:16;;;;;;;7.22;2.70;;;5.50;99.90;;;;;;4119981;28;20408;-63
2022/04/10 02:22:16;;;;;;;4.63;2.60;;;5.40;99.90;;;;;;4139992;28;20034;-63
2022/04/10 02:24:17;;;;;;;5.63;2.53;;;5.40;99.90;;;;;;4131308;28;20077;-63
2022/04/10 02:26:17;;;;;;;7.00;2.58;;;5.40;99.90;;;;;;4128931;28;20022;-63
2022/04/10 02:28:18;;;;;;;6.20;2.75;;;5.50;99.90;;;;;;4129119;28;20039;-63
2022/04/10 02:30:18;;;;;;;6.38;2.72;;;5.40;99.90;;;;;;4129290;28;20539;-63
2022/04/10 02:32:19;;;;;;;7.90;2.42;;;5.50;99.90;;;;;;4129369;28;20069;-63
2022/04/10 02:34:20;;;;;;;12.27;2.97;;;5.50;99.90;;;;;;4129648;28;20066;-63
2022/04/10 02:36:22;;;;;;;3.83;2.70;;;5.50;99.90;;;;;;4128597;28;20038;-63
2022/04/10 02:38:22;;;;;;;6.60;2.97;;;5.50;99.90;;;;;;4129765;28;20427;-63
2022/04/10 02:40:23;;;;;;;4.25;2.70;;;5.50;99.90;;;;;;4129173;28;20053;-63
2022/04/10 02:42:24;;;;;;;7.43;2.97;;;5.50;99.90;;;;;;4129516;28;20048;-63
2022/04/10 02:44:24;;;;;;;7.97;2.90;;;5.50;99.90;;;;;;4129163;28;20046;-63
2022/04/10 02:46:25;;;;;;;6.90;2.85;;;5.50;99.90;;;;;;4129073;28;20045;-63
2022/04/10 02:48:26;;;;;;;7.63;3.15;;;5.50;99.90;;;;;;4129746;28;20088;-63
2022/04/10 02:50:26;;;;;;;10.95;3.38;;;5.50;99.90;;;;;;4128921;28;20466;-63
2022/04/10 02:52:27;;;;;;;5.97;2.78;;;5.50;99.90;;;;;;4129167;28;20050;-63
2022/04/10 02:54:27;;;;;;;6.25;3.20;;;5.50;99.90;;;;;;4128155;28;20054;-63
2022/04/10 02:56:28;;;;;;;7.03;3.33;;;5.50;99.90;;;;;;4128924;28;20112;-63
2022/04/10 02:58:29;;;;;;;11.23;3.28;;;5.50;99.90;;;;;;4129275;28;20061;-63
2022/04/10 03:00:29;;;;;;;6.05;3.45;;;5.50;99.90;;;;;;4128321;28;20129;-63
2022/04/10 03:02:30;;;;;;;8.57;3.20;;;5.50;99.90;;;;;;4127694;28;20038;-63
2022/04/10 03:04:31;;;;;;;5.40;3.17;;;5.50;99.90;;;;;;4129511;28;20125;-63
2022/04/10 03:06:31;;;;;;;6.47;2.95;;;5.40;99.90;;;;;;4128972;28;20497;-63
2022/04/10 03:08:32;;;;;;;9.43;3.10;;;5.40;99.90;;;;;;4129116;28;20034;-63
2022/04/10 03:10:33;;;;;;;6.93;3.15;;;5.40;99.90;;;;;;4128964;28;20573;-63
2022/04/10 03:12:33;;;;;;;5.72;3.15;;;5.40;99.90;;;;;;4129221;28;20100;-63
2022/04/10 03:14:34;;;;;;;6.38;3.53;;;5.40;99.90;;;;;;4129179;28;20104;-63
2022/04/10 03:16:35;;;;;;;7.88;3.42;;;5.40;99.90;;;;;;4128320;28;20034;-63
2022/04/10 03:18:36;;;;;;;10.63;3.70;;;5.40;99.90;;;;;;4129246;28;20041;-63
2022/04/10 03:20:36;;;;;;;12.15;3.53;;;5.40;99.90;;;;;;4128686;28;20442;-63
2022/04/10 03:22:37;;;;;;;8.23;3.53;;;5.30;99.90;;;;;;4129001;28;20121;-63
2022/04/10 03:24:38;;;;;;;7.38;3.83;;;5.30;99.90;;;;;;4128564;28;20113;-63
2022/04/10 03:26:38;;;;;;;6.10;3.38;;;5.20;99.90;;;;;;4128613;28;20054;-63
2022/04/10 03:28:39;;;;;;;10.13;3.38;;;5.30;99.90;;;;;;4128907;28;20113;-63
2022/04/10 03:30:39;;;;;;;8.40;3.58;;;5.20;99.90;;;;;;4126455;28;20046;-63
2022/04/10 03:32:41;;;;;;;7.28;3.67;;;5.20;99.90;;;;;;4128431;28;20494;-63
2022/04/10 03:34:42;;;;;;;5.97;3.37;;;5.20;99.90;;;;;;4128831;28;20687;-64
2022/04/10 03:36:43;;;;;;;8.98;3.95;;;5.20;99.90;;;;;;4128419;28;20273;-64
2022/04/10 03:38:43;;;;;;;6.22;3.60;;;5.20;99.90;;;;;;4128920;28;20030;-63
2022/04/10 03:40:44;;;;;;;5.85;3.42;;;5.20;99.90;;;;;;4135429;28;20092;-64
2022/04/10 03:42:45;;;;;;;8.10;3.38;;;5.20;99.90;;;;;;4127771;28;20126;-63
2022/04/10 03:44:45;;;;;;;7.72;3.80;;;5.20;99.90;;;;;;4127360;28;20034;-63
2022/04/10 03:46:46;;;;;;;6.45;3.47;;;5.10;99.90;;;;;;4127786;28;20030;-62
2022/04/10 03:48:46;;;;;;;7.35;3.25;;;5.20;99.90;;;;;;4128163;28;20038;-63
2022/04/10 03:50:47;;;;;;;5.72;3.25;;;5.20;99.90;;;;;;4128105;28;20050;-63
2022/04/10 03:52:47;;;;;;;6.40;3.55;;;5.20;99.90;;;;;;4128471;28;20100;-63
2022/04/10 03:54:48;;;;;;;8.75;3.65;;;5.20;99.90;;;;;;4128169;28;20038;-63
2022/04/10 03:56:48;;;;;;;8.73;4.07;;;5.20;99.90;;;;;;4127602;28;20058;-63
2022/04/10 03:58:49;;;;;;;8.80;3.50;;;5.20;99.90;;;;;;4128321;28;20039;-63
2022/04/10 04:00:50;;;;;;;11.65;4.28;;;5.10;99.90;;;;;;4127352;28;20530;-64
2022/04/10 04:02:50;;;;;;;8.10;3.83;;;5.10;99.90;;;;;;4128417;28;20386;-63
2022/04/10 04:04:52;;;;;;;7.97;4.30;;;5.10;99.90;;;;;;4133957;28;20041;-63
2022/04/10 04:06:52;;;;;;;10.48;3.63;;;5.10;99.90;;;;;;4127926;28;20116;-63
2022/04/10 04:08:53;;;;;;;8.75;4.00;;;5.10;99.90;;;;;;4129124;28;20041;-63
2022/04/10 04:10:53;;;;;;;8.63;3.83;;;5.10;99.90;;;;;;4131567;28;20043;-62
2022/04/10 04:12:54;;;;;;;11.95;4.40;;;5.10;99.90;;;;;;4142282;28;20512;-63
2022/04/10 04:14:55;;;;;;;9.95;4.93;;;5.10;99.90;;;;;;4128339;28;20621;-63
2022/04/10 04:16:55;;;;;;;10.27;4.80;;;5.00;99.90;;;;;;4127589;28;20030;-63
2022/04/10 04:18:56;;;;;;;10.95;5.50;;;5.00;99.90;;;;;;4127523;28;20401;-64
2022/04/10 04:20:56;;;;;;;10.57;4.45;;;5.00;99.90;;;;;;4126148;28;20031;-63
2022/04/10 04:22:57;;;;;;;8.10;4.20;;;4.90;99.90;;;;;;4127103;28;20169;-63
2022/04/10 04:24:57;;;;;;;7.28;3.80;;;4.90;99.90;;;;;;4127018;28;20035;-63
2022/04/10 04:26:58;;;;;;;7.05;3.72;;;5.00;99.90;;;;;;4126486;28;20414;-63
2022/04/10 04:28:59;;;;;;;10.63;3.85;;;5.00;99.90;;;;;;4127719;28;20118;-63
2022/04/10 04:30:59;;;;;;;13.20;4.25;;;5.00;99.90;;;;;;4133664;28;20041;-63
2022/04/10 04:33:01;;;;;;;6.30;3.47;;;5.00;99.90;;;;;;4134065;28;20481;-63
2022/04/10 04:35:01;;;;;;;7.78;3.97;;;5.00;99.90;;;;;;4127190;28;20030;-63
2022/04/10 04:37:02;;;;;;;9.25;3.80;;;4.90;99.90;;;;;;4127384;28;20034;-63
2022/04/10 04:39:03;;;;;;;7.50;4.03;;;4.90;99.90;;;;;;4128557;28;20042;-63
2022/04/10 04:41:03;;;;;;;8.07;3.97;;;5.00;99.90;;;;;;4127803;28;20058;-64
2022/04/10 04:43:04;;;;;;;7.97;3.85;;;4.90;99.90;;;;;;4127348;28;20039;-63
2022/04/10 04:45:05;;;;;;;7.35;3.90;;;5.00;99.90;;;;;;4126067;28;20045;-65
2022/04/10 04:47:06;;;;;;;11.07;4.00;;;5.00;99.90;;;;;;4128646;28;20394;-63
2022/04/10 04:49:07;;;;;;;6.18;3.78;;;4.90;99.90;;;;;;4136890;28;20033;-62
2022/04/10 04:51:07;;;;;;;7.15;4.25;;;4.90;99.90;;;;;;4142654;28;20384;-63
2022/04/10 04:53:08;;;;;;;9.93;4.28;;;4.90;99.90;;;;;;4133494;28;20084;-63
2022/04/10 04:55:09;;;;;;;7.68;4.43;;;4.90;99.90;;;;;;4128631;28;20064;-64
2022/04/10 04:57:09;;;;;;;9.05;4.00;;;4.90;99.90;;;;;;4131636;28;20030;-63
2022/04/10 04:59:12;;;;;;;10.20;4.15;;;4.90;99.90;;;;;;4126752;28;20034;-63
2022/04/10 05:01:14;;;;;;;7.55;4.43;;;4.80;99.90;;;;;;4135074;28;20525;-63
2022/04/10 05:03:17;;;;;;;12.02;4.90;;;4.80;99.90;;;;;;4127808;28;20030;-63
2022/04/10 05:05:18;;;;;;;9.00;4.40;;;4.80;99.90;;;;;;4128891;28;20501;-64
2022/04/10 05:07:18;;;;;;;8.13;4.28;;;4.80;99.90;;;;;;4128325;28;20035;-63
2022/04/10 05:09:19;;;;;;;8.27;4.20;;;4.80;99.90;;;;;;4128215;28;20042;-63
2022/04/10 05:11:19;;;;;;;7.32;4.07;;;4.80;99.90;;;;;;4127050;28;20044;-63
2022/04/10 05:13:20;;;;;;;11.70;4.70;;;4.80;99.90;;;;;;4125877;28;20409;-63
2022/04/10 05:15:21;;;;;;;10.57;4.93;;;4.80;99.90;;;;;;4127094;28;20046;-64
2022/04/10 05:17:22;;;;;;;13.45;4.82;;;4.80;99.90;;;;;;4127355;28;20498;-64
2022/04/10 05:19:23;;;;;;;8.73;5.03;;;4.80;99.90;;;;;;4128316;28;20038;-63
2022/04/10 05:21:24;;;;;;;11.88;5.53;;;4.80;99.90;;;;;;4124932;28;20132;-63
2022/04/10 05:23:24;;;;;;;11.85;5.20;;;4.80;99.90;;;;;;4123260;28;20066;-63
2022/04/10 05:25:25;;;;;;;8.77;4.80;;;4.80;99.90;;;;;;4130317;28;21468;-63
2022/04/10 05:27:25;;;;;;;9.25;4.80;;;4.80;99.90;;;;;;4127206;28;20494;-63
2022/04/10 05:29:26;;;;;;;9.70;4.35;;;4.80;99.90;;;;;;4127545;28;20453;-63
2022/04/10 05:31:27;;;;;;;12.10;4.78;;;4.80;99.90;;;;;;4124025;28;20047;-63
2022/04/10 05:33:28;;;;;;;11.75;5.10;;;4.80;99.90;;;;;;4125449;28;20030;-63
2022/04/10 05:35:29;;;;;;;11.35;4.80;;;4.90;99.90;;;;;;4132281;28;20041;-63
2022/04/10 05:37:30;;;;;;;11.10;4.90;;;4.80;99.90;;;;;;4138135;28;20549;-63
2022/04/10 05:39:30;;;;;;;6.78;4.45;;;4.90;99.90;;;;;;4131681;28;20165;-63
2022/04/10 05:41:31;;;;;;;10.10;4.88;;;4.90;99.90;;;;;;4128968;28;20053;-63
2022/04/10 05:43:31;;;;;;;9.43;4.88;;;4.90;99.90;;;;;;4134771;28;20085;-63
2022/04/10 05:45:32;;;;;;;11.80;4.85;;;4.90;99.90;;;;;;4131314;28;20486;-63
2022/04/10 05:47:32;;;;;;;10.05;4.82;;;4.90;99.90;;;;;;4135927;28;20498;-63
2022/04/10 05:49:33;;;;;;;10.90;5.00;;;5.00;99.90;;;;;;4131055;28;20135;-63
2022/04/10 05:51:34;;;;;;;14.05;5.25;;;5.00;99.90;;;;;;4132235;28;20042;-63
2022/04/10 05:53:34;;;;;;;15.73;4.88;;;5.00;99.90;;;;;;4133100;28;20080;-63
2022/04/10 05:55:35;;;;;;;10.00;5.38;;;5.00;99.90;;;;;;4128800;28;20034;-63
2022/04/10 05:57:36;;;;;;;13.75;5.40;;;5.10;99.90;;;;;;4135602;28;20034;-63
2022/04/10 05:59:37;;;;;;;14.38;6.30;;;5.10;99.90;;;;;;4134003;28;20161;-63
2022/04/10 06:01:37;;;;;;;8.70;5.00;;;5.10;99.90;;;;;;4130209;28;20030;-63
2022/04/10 06:03:38;;;;;;;10.07;5.25;;;5.10;99.90;;;;;;4127453;28;20045;-63
2022/04/10 06:05:40;;;;;;;9.13;5.40;;;5.20;99.90;;;;;;4128641;28;20105;-63
2022/04/10 06:07:40;;;;;;;9.68;5.13;;;5.20;99.90;;;;;;4122245;28;20026;-63
2022/04/10 06:09:41;;;;;;;10.60;5.57;;;5.20;99.90;;;;;;4130571;28;20363;-63
2022/04/10 06:11:42;;;;;;;11.40;5.57;;;5.30;99.90;;;;;;4126270;28;20046;-63
2022/04/10 06:13:42;;;;;;;11.77;5.30;;;5.40;99.90;;;;;;4130664;28;20470;-63
2022/04/10 06:15:43;;;;;;;16.25;6.18;;;5.40;99.90;;;;;;4129460;28;20062;-63
2022/04/10 06:17:43;;;;;;;8.93;5.03;;;5.50;99.90;;;;;;4129800;28;20033;-63
2022/04/10 06:19:45;;;;;;;11.52;5.25;;;5.50;99.90;;;;;;4129922;28;20426;-63
2022/04/10 06:21:46;;;;;;;15.00;6.47;;;5.60;99.90;;;;;;4128050;28;20445;-63
2022/04/10 06:23:46;;;;;;;15.98;6.35;;;5.60;99.90;;;;;;4129478;28;20026;-65
2022/04/10 06:25:47;;;;;;;15.27;6.13;;;5.70;99.90;;;;;;4129006;28;20030;-64
2022/04/10 06:27:47;;;;;;;11.35;5.38;;;5.80;99.90;;;;;;4129551;28;20037;-64
2022/04/10 06:29:48;;;;;;;13.60;6.10;;;5.80;99.90;;;;;;4129457;28;20041;-64
2022/04/10 06:31:49;;;;;;;10.20;5.32;;;5.90;99.90;;;;;;4133357;28;20026;-67
2022/04/10 06:33:50;;;;;;;11.30;5.22;;;6.00;99.90;;;;;;4129200;28;20032;-64
2022/04/10 06:35:51;;;;;;;10.27;5.78;;;6.10;99.90;;;;;;4129001;28;20189;-63
2022/04/10 06:37:52;;;;;;;12.30;5.30;;;6.40;99.90;;;;;;4129097;28;20038;-64
2022/04/10 06:39:53;;;;;;;10.40;4.88;;;6.70;99.90;;;;;;4128473;28;20027;-63
2022/04/10 06:41:53;;;;;;;12.85;5.90;;;7.00;99.90;;;;;;4128902;28;20040;-63
2022/04/10 06:43:54;;;;;;;8.25;4.60;;;7.40;99.90;;;;;;4129061;28;20474;-64
2022/04/10 06:45:54;;;;;;;7.45;4.43;;;7.80;99.90;;;;;;4128349;28;20097;-63
2022/04/10 06:47:55;;;;;;;10.07;4.75;;;8.10;99.90;;;;;;4127295;28;20061;-63
2022/04/10 06:49:57;;;;;;;12.02;5.32;;;8.40;99.90;;;;;;4128342;28;20022;-64
2022/04/10 06:51:57;;;;;;;12.70;5.60;;;8.70;99.90;;;;;;4128734;28;20046;-64
2022/04/10 06:53:58;;;;;;;10.55;5.45;;;9.00;99.90;;;;;;4129017;28;20035;-63
2022/04/10 06:55:58;;;;;;;8.07;4.32;;;9.20;99.90;;;;;;4128608;28;20073;-64
2022/04/10 06:57:59;;;;;;;11.13;4.57;;;9.40;99.90;;;;;;4128861;28;20026;-64
2022/04/10 06:59:59;;;;;;;11.07;5.05;;;9.70;99.90;;;;;;4129088;28;20050;-64
2022/04/10 07:02:01;;;;;;;7.00;4.05;;;9.90;99.90;;;;;;4128473;28;20026;-64
2022/04/10 07:04:02;;;;;;;8.35;4.38;;;10.30;99.90;;;;;;4128909;28;20390;-64
2022/04/10 07:06:03;;;;;;;7.43;4.00;;;10.50;99.90;;;;;;4128056;28;20030;-64
2022/04/10 07:08:04;;;;;;;8.40;4.00;;;10.70;99.90;;;;;;4129473;28;20038;-64
2022/04/10 07:10:05;;;;;;;11.30;4.68;;;11.00;99.90;;;;;;4128309;28;20038;-65
2022/04/10 07:12:06;;;;;;;8.82;3.90;;;11.20;99.90;;;;;;4127878;28;20355;-64
2022/04/10 07:14:07;;;;;;;7.65;4.05;;;11.30;99.90;;;;;;4128481;28;20042;-64
2022/04/10 07:16:08;;;;;;;14.95;5.18;;;11.40;99.90;;;;;;4128326;28;20069;-64
2022/04/10 07:18:08;;;;;;;7.53;4.40;;;11.60;99.90;;;;;;4127517;28;20117;-64
2022/04/10 07:20:09;;;;;;;8.35;4.15;;;11.70;99.90;;;;;;4127579;28;20066;-64
2022/04/10 07:24:29;;;;;;;7.75;3.72;;;12.10;99.90;;;;;;4127296;28;20030;-64
2022/04/10 07:26:30;;;;;;;7.93;3.72;;;12.30;99.90;;;;;;4141544;28;20037;-64
2022/04/10 07:28:30;;;;;;;6.72;3.50;;;12.50;99.90;;;;;;4129006;28;20062;-64
2022/04/10 07:30:31;;;;;;;9.07;3.97;;;12.70;99.90;;;;;;4128903;28;20130;-64
2022/04/10 07:32:31;;;;;;;7.18;3.65;;;12.90;99.90;;;;;;4139121;28;20038;-64
2022/04/10 07:34:32;;;;;;;7.22;3.80;;;13.00;99.90;;;;;;4128526;28;20084;-64
2022/04/10 07:36:33;;;;;;;9.05;3.58;;;13.10;99.90;;;;;;4127693;28;20035;-63
2022/04/10 07:38:33;;;;;;;6.30;3.80;;;13.20;99.90;;;;;;4128466;28;20486;-64
2022/04/10 07:40:34;;;;;;;7.97;4.07;;;13.40;99.90;;;;;;4126333;28;20034;-64
2022/04/10 07:42:44;;;;;;;7.32;3.47;;;13.40;99.90;;;;;;4122442;28;20371;-64
2022/04/10 07:44:45;;;;;;;8.82;3.85;;;13.50;99.90;;;;;;4128130;28;20023;-64
2022/04/10 07:49:05;;;;;;;8.57;3.65;;;13.60;99.90;;;;;;4129199;28;20042;-64
2022/04/10 07:51:07;;;;;;;6.57;3.13;;;13.60;99.90;;;;;;4125269;28;20034;-64
2022/04/10 07:53:07;;;;;;;5.97;2.80;;;13.60;99.90;;;;;;4125337;28;20069;-64
2022/04/10 07:55:08;;;;;;;7.63;3.38;;;13.60;99.90;;;;;;4128754;28;20038;-64
2022/04/10 07:57:09;;;;;;;10.15;3.10;;;13.50;99.90;;;;;;4128135;28;20053;-64
2022/04/10 07:59:09;;;;;;;10.45;3.78;;;13.30;99.90;;;;;;4126605;28;20038;-64
2022/04/10 08:01:10;;;;;;;10.30;3.53;;;13.00;99.90;;;;;;4127297;28;20080;-64
2022/04/10 08:03:11;;;;;;;10.13;4.15;;;13.00;99.90;;;;;;4128231;28;20381;-64
2022/04/10 08:05:12;;;;;;;5.25;2.72;;;12.80;99.90;;;;;;4130255;28;20041;-65
2022/04/10 08:07:12;;;;;;;8.00;3.58;;;12.70;99.90;;;;;;4132310;28;20042;-64
2022/04/10 08:09:13;;;;;;;6.85;2.85;;;12.70;99.90;;;;;;4128007;28;20038;-64
2022/04/10 08:11:13;;;;;;;7.43;3.30;;;12.70;99.90;;;;;;4128531;28;20057;-63
2022/04/10 08:13:14;;;;;;;9.68;3.28;;;12.70;99.90;;;;;;4131017;28;20031;-64
2022/04/10 08:15:15;;;;;;;6.88;2.90;;;12.60;99.90;;;;;;4127214;28;20037;-63
2022/04/10 08:17:16;;;;;;;12.10;3.35;;;12.40;99.90;;;;;;4127931;28;20038;-64
2022/04/10 08:19:16;;;;;;;9.85;3.05;;;12.40;99.90;;;;;;4127821;28;20105;-63
2022/04/10 08:21:17;;;;;;;9.27;3.10;;;12.50;99.90;;;;;;4126972;28;20489;-64
2022/04/10 08:23:18;;;;;;;8.75;3.13;;;12.60;99.90;;;;;;4129574;28;20034;-65
2022/04/10 08:25:23;;;;;;;5.25;2.72;;;12.60;99.90;;;;;;4127758;28;20030;-64
2022/04/10 08:27:23;;;;;;;9.95;3.20;;;12.60;99.90;;;;;;4127889;28;20034;-64
2022/04/10 08:29:24;;;;;;;6.13;2.55;;;12.50;99.90;;;;;;4127774;28;20045;-64
2022/04/10 08:31:26;;;;;;;5.80;2.50;;;12.40;99.90;;;;;;4127396;28;20038;-64
2022/04/10 08:33:27;;;;;;;10.13;2.90;;;12.50;99.90;;;;;;4128139;28;20038;-64
2022/04/10 08:35:27;;;;;;;10.95;2.92;;;12.20;99.90;;;;;;4127130;28;20058;-64
2022/04/10 08:37:28;;;;;;;7.53;2.70;;;12.10;99.90;;;;;;4127752;28;20149;-64
2022/04/10 08:39:28;;;;;;;6.47;2.50;;;12.00;99.90;;;;;;4128238;28;20414;-64
2022/04/10 08:41:32;;;;;;;5.03;2.30;;;12.10;99.90;;;;;;4127393;28;20116;-64
2022/04/10 08:43:36;;;;;;;7.60;2.50;;;12.30;99.90;;;;;;4127324;28;20041;-63
2022/04/10 08:45:38;;;;;;;7.60;2.17;;;12.30;99.90;;;;;;4141912;28;20030;-64
2022/04/10 08:47:42;;;;;;;9.00;2.20;;;12.30;99.90;;;;;;4127690;28;20557;-63
2022/04/10 08:49:43;;;;;;;7.75;2.42;;;12.10;99.90;;;;;;4127413;28;20053;-64
2022/04/10 08:51:44;;;;;;;10.43;2.40;;;12.00;99.90;;;;;;4130482;28;20034;-63
2022/04/10 08:53:46;;;;;;;8.07;2.40;;;11.80;99.90;;;;;;4127341;28;20498;-64
2022/04/10 08:55:47;;;;;;;9.40;2.97;;;11.70;99.90;;;;;;4127502;28;20033;-64
2022/04/10 08:57:47;;;;;;;7.38;2.10;;;11.60;99.90;;;;;;4127811;28;20109;-64
2022/04/10 08:59:48;;;;;;;5.22;2.22;;;11.40;99.90;;;;;;4127606;28;20046;-66
2022/04/10 09:01:53;;;;;;;5.95;2.03;;;11.30;99.90;;;;;;4128687;28;20505;-67
2022/04/10 09:03:54;;;;;;;4.28;1.90;;;11.20;99.90;;;;;;4131408;28;20022;-64
2022/04/10 09:06:05;;;;;;;7.35;2.78;;;11.10;99.90;;;;;;4127118;28;20521;-64
2022/04/10 09:08:13;;;;;;;8.85;2.38;;;10.80;99.90;;;;;;4125939;28;20026;-64
2022/04/10 09:10:15;;;;;;;6.03;2.28;;;10.70;99.90;;;;;;4126445;28;20528;-64
2022/04/10 09:12:17;;;;;;;7.00;2.43;;;10.70;99.90;;;;;;4131493;28;20877;-64
2022/04/10 09:14:35;;;;;;;5.43;1.88;;;10.70;99.90;;;;;;4127703;28;20027;-63
2022/04/10 09:16:36;;;;;;;6.25;2.30;;;10.70;99.90;;;;;;4127088;28;21392;-63
2022/04/10 09:18:55;;;;;;;6.18;2.60;;;10.80;99.90;;;;;;4131763;28;20057;-63
2022/04/10 09:21:07;;;;;;;6.90;2.35;;;10.90;99.90;;;;;;4126782;28;20545;-63
2022/04/10 09:23:08;;;;;;;8.95;2.45;;;11.10;99.90;;;;;;4131050;28;20027;-63
2022/04/10 09:25:15;;;;;;;4.23;2.13;;;11.30;99.90;;;;;;4126704;28;20437;-64
2022/04/10 09:27:32;;;;;;;3.55;1.60;;;11.50;99.90;;;;;;4127643;28;20417;-63
2022/04/10 09:29:49;;;;;;;7.07;2.30;;;11.70;99.90;;;;;;4127660;28;20045;-64
2022/04/10 09:31:51;;;;;;;5.35;2.25;;;11.90;99.90;;;;;;4123459;28;20042;-64
2022/04/10 09:33:54;;;;;;;7.20;2.03;;;11.90;99.90;;;;;;4127437;28;20520;-64
2022/04/10 09:35:55;;;;;;;7.38;2.30;;;11.80;99.90;;;;;;4127047;28;20030;-64
2022/04/10 09:37:57;;;;;;;6.20;2.45;;;11.70;99.90;;;;;;4127031;28;20058;-64
2022/04/10 09:40:30;;;;;;;10.75;2.72;;;11.70;99.90;;;;;;4123658;28;20034;-63
2022/04/10 09:42:32;;;;;;;6.97;2.20;;;11.70;99.90;;;;;;4126916;28;20034;-64
2022/04/10 09:44:34;;;;;;;5.43;2.17;;;11.70;99.90;;;;;;4130599;28;20109;-63
2022/04/10 09:46:34;;;;;;;5.80;2.07;;;11.70;99.90;;;;;;4129877;28;20035;-64
2022/04/10 09:48:35;;;;;;;7.85;2.17;;;11.70;99.90;;;;;;4128665;28;20288;-64
2022/04/10 09:50:35;;;;;;;6.82;2.10;;;11.60;99.90;;;;;;4130213;28;20030;-63
2022/04/10 09:52:39;;;;;;;7.30;2.13;;;11.70;99.90;;;;;;4130480;28;20505;-63
2022/04/10 09:54:44;;;;;;;4.15;1.80;;;11.70;99.90;;;;;;4129443;28;20031;-64
2022/04/10 09:56:45;;;;;;;5.25;2.20;;;11.70;99.90;;;;;;4129793;28;20097;-63
2022/04/10 09:58:46;;;;;;;5.82;1.88;;;11.80;99.90;;;;;;4128511;28;20034;-64
2022/04/10 10:00:49;;;;;;;3.50;1.50;;;11.90;99.90;;;;;;4127802;28;20124;-63
2022/04/10 10:02:50;;;;;;;6.97;1.50;;;11.80;99.90;;;;;;4126106;28;20035;-65
2022/04/10 10:04:54;;;;;;;3.10;1.13;;;11.60;99.90;;;;;;4130944;28;20049;-64
2022/04/10 10:06:55;;;;;;;6.80;1.95;;;11.60;99.90;;;;;;4128645;28;20038;-64
2022/04/10 10:08:57;;;;;;;5.25;1.63;;;11.70;99.90;;;;;;4129619;28;20053;-64
2022/04/10 10:11:00;;;;;;;10.73;2.13;;;11.70;99.90;;;;;;4129793;28;20038;-64
2022/04/10 10:13:05;;;;;;;5.03;1.90;;;11.70;99.90;;;;;;4130270;28;20038;-64
2022/04/10 10:15:07;;;;;;;3.92;1.80;;;11.60;99.90;;;;;;4127765;28;20026;-65
2022/04/10 10:17:08;;;;;;;6.30;1.45;;;11.60;99.90;;;;;;4129813;28;20044;-64
2022/04/10 10:19:10;;;;;;;4.68;1.90;;;11.70;99.90;;;;;;4130268;28;21874;-64
2022/04/10 10:21:13;;;;;;;6.47;1.67;;;11.70;99.90;;;;;;4128901;28;20026;-63
2022/04/10 10:23:14;;;;;;;6.75;1.90;;;11.90;99.90;;;;;;4129623;28;20096;-64
2022/04/10 10:25:27;;;;;;;5.00;1.50;;;11.90;99.90;;;;;;4131155;28;20046;-64
2022/04/10 10:27:53;;;;;;;4.15;1.25;;;12.00;99.90;;;;;;4131938;28;20514;-64
2022/04/10 10:30:20;;;;;;;3.60;1.20;;;12.10;99.90;;;;;;4128707;28;20630;-64
2022/04/10 10:32:38;;;;;;;7.15;1.85;;;12.20;99.90;;;;;;4128696;28;20042;-64
2022/04/10 10:34:41;;;;;;;10.40;4.20;;;12.20;99.90;;;;;;4128157;28;20455;-64
2022/04/10 10:36:41;;;;;;;6.95;2.00;;;12.20;99.90;;;;;;4129734;28;20042;-64
2022/04/10 10:38:51;;;;;;;3.70;1.55;;;12.10;99.90;;;;;;4129407;28;20378;-64
2022/04/10 10:41:08;;;;;;;5.03;1.55;;;12.00;99.90;;;;;;4128110;28;20093;-65
2022/04/10 10:43:08;;;;;;;4.28;1.35;;;12.10;99.90;;;;;;4126892;28;20502;-64